Time;durP1;ratioP1;P1;durP2;ratioP2;P2;SDS_P1;SDS_P2;PMS_P1;PMS_P2;Temp;Humidity;BMP_temperature;BMP_pressure;BME280_temperature;BME280_humidity;BME280_pressure;Samples;Min_cycle;Max_cycle;Signal;HPM_P1;HPM_P2
2021/04/11 00:01:17;;;;;;;21.67;13.47;;;10.40;99.90;;;;;;4934788;29;20451;-78
2021/04/11 00:03:43;;;;;;;21.10;13.10;;;10.40;99.90;;;;;;4936065;29;20446;-78
2021/04/11 00:06:12;;;;;;;14.83;12.10;;;10.40;99.90;;;;;;4939150;29;20464;-78
2021/04/11 00:08:38;;;;;;;16.97;13.27;;;10.40;99.90;;;;;;4921955;29;20454;-78
2021/04/11 00:11:04;;;;;;;19.07;12.40;;;10.40;99.90;;;;;;4930105;29;20439;-78
2021/04/11 00:13:37;;;;;;;17.57;13.50;;;10.40;99.90;;;;;;4938438;29;20815;-78
2021/04/11 00:16:07;;;;;;;17.87;12.70;;;10.40;99.90;;;;;;4921807;29;20531;-78
2021/04/11 00:18:33;;;;;;;17.27;14.67;;;10.40;99.90;;;;;;4922119;29;20435;-78
2021/04/11 00:21:03;;;;;;;16.17;12.43;;;10.40;99.90;;;;;;4936152;29;20896;-78
2021/04/11 00:23:32;;;;;;;16.40;13.20;;;10.40;99.90;;;;;;4921929;29;20454;-78
2021/04/11 00:26:01;;;;;;;15.13;12.03;;;10.40;99.90;;;;;;4924550;29;20480;-78
2021/04/11 00:28:37;;;;;;;18.07;12.50;;;10.40;99.90;;;;;;4919559;29;20523;-78
2021/04/11 00:31:08;;;;;;;16.27;11.80;;;10.40;99.90;;;;;;4902239;29;20452;-78
2021/04/11 00:33:45;;;;;;;16.30;12.97;;;10.40;99.90;;;;;;4919746;29;20567;-78
2021/04/11 00:36:19;;;;;;;14.43;12.27;;;10.40;99.90;;;;;;4911219;29;20925;-78
2021/04/11 00:38:46;;;;;;;14.20;11.67;;;10.40;99.90;;;;;;4917330;29;20994;-78
2021/04/11 00:41:32;;;;;;;16.07;12.30;;;10.50;99.90;;;;;;4902688;29;20432;-78
2021/04/11 00:44:02;;;;;;;14.93;11.30;;;10.50;99.90;;;;;;4918892;29;21032;-78
2021/04/11 00:46:38;;;;;;;15.13;10.83;;;10.40;99.90;;;;;;4901464;29;20860;-79
2021/04/11 00:49:20;;;;;;;14.53;11.60;;;10.40;99.90;;;;;;4918241;29;20436;-78
2021/04/11 00:51:49;;;;;;;15.97;11.70;;;10.40;99.90;;;;;;4902656;29;20487;-78
2021/04/11 00:54:19;;;;;;;13.90;11.80;;;10.50;99.90;;;;;;4917451;29;20476;-78
2021/04/11 00:56:45;;;;;;;14.93;11.20;;;10.40;99.90;;;;;;4910776;29;20436;-78
2021/04/11 00:59:15;;;;;;;15.50;12.00;;;10.40;99.90;;;;;;4918910;29;20514;-78
2021/04/11 01:01:44;;;;;;;12.37;11.00;;;10.40;99.90;;;;;;4918772;29;20432;-78
2021/04/11 01:04:11;;;;;;;19.30;12.50;;;10.40;99.90;;;;;;4902273;29;20431;-78
2021/04/11 01:06:54;;;;;;;13.30;10.50;;;10.40;99.90;;;;;;4917255;29;20443;-78
2021/04/11 01:09:28;;;;;;;14.30;10.57;;;10.50;99.90;;;;;;4917750;29;20444;-78
2021/04/11 01:12:00;;;;;;;14.07;11.40;;;10.50;99.90;;;;;;4902284;29;20438;-78
2021/04/11 01:14:31;;;;;;;14.23;11.10;;;10.50;99.90;;;;;;4909544;29;20480;-78
2021/04/11 01:16:58;;;;;;;13.20;10.50;;;10.50;99.90;;;;;;4892247;29;20558;-78
2021/04/11 01:19:32;;;;;;;15.13;12.70;;;10.50;99.90;;;;;;4903031;29;20449;-78
2021/04/11 01:22:30;;;;;;;14.60;11.37;;;10.50;99.90;;;;;;4902015;29;20500;-78
2021/04/11 01:25:00;;;;;;;15.80;10.50;;;10.50;99.90;;;;;;4901972;29;20849;-78
2021/04/11 01:27:35;;;;;;;17.73;11.53;;;10.60;99.90;;;;;;4918228;29;20484;-78
2021/04/11 01:30:27;;;;;;;15.50;11.10;;;10.50;99.90;;;;;;4916584;29;20507;-78
2021/04/11 01:32:56;;;;;;;15.67;11.23;;;10.50;99.90;;;;;;4918386;29;20457;-77
2021/04/11 01:35:25;;;;;;;12.67;10.80;;;10.60;99.90;;;;;;4901651;29;20789;-77
2021/04/11 01:37:58;;;;;;;13.10;10.90;;;10.60;99.90;;;;;;4900905;29;20476;-78
2021/04/11 01:40:38;;;;;;;15.03;11.00;;;10.60;99.90;;;;;;4918377;29;20433;-78
2021/04/11 01:43:07;;;;;;;13.50;11.50;;;10.60;99.90;;;;;;4904457;29;20503;-78
2021/04/11 01:45:37;;;;;;;16.13;11.50;;;10.50;99.90;;;;;;4901667;29;20444;-78
2021/04/11 01:48:04;;;;;;;14.73;11.70;;;10.50;99.90;;;;;;4901122;29;20445;-78
2021/04/11 01:50:31;;;;;;;14.50;12.43;;;10.70;99.90;;;;;;4917454;29;20846;-78
2021/04/11 01:53:01;;;;;;;13.57;11.70;;;10.60;99.90;;;;;;4916739;29;20444;-78
2021/04/11 01:55:30;;;;;;;16.83;13.97;;;10.60;99.90;;;;;;4902386;29;20479;-77
2021/04/11 01:58:01;;;;;;;21.30;15.50;;;10.60;99.90;;;;;;4917341;29;20522;-77
2021/04/11 02:00:44;;;;;;;31.37;21.80;;;10.40;99.90;;;;;;4916478;29;20925;-76
2021/04/11 02:03:14;;;;;;;27.70;20.83;;;10.20;99.90;;;;;;4888599;29;20811;-77
2021/04/11 02:05:46;;;;;;;27.50;21.40;;;9.80;99.90;;;;;;4915717;29;20864;-78
2021/04/11 02:08:24;;;;;;;29.03;21.73;;;9.50;99.90;;;;;;4901340;29;20852;-77
2021/04/11 02:10:55;;;;;;;33.70;22.27;;;9.40;99.90;;;;;;4901786;29;20487;-77
2021/04/11 02:13:29;;;;;;;38.00;26.03;;;9.20;99.90;;;;;;4901319;29;20472;-77
2021/04/11 02:16:08;;;;;;;38.87;25.77;;;9.20;99.90;;;;;;4871870;29;20425;-77
2021/04/11 02:18:39;;;;;;;40.43;26.10;;;9.10;99.90;;;;;;4917518;29;20442;-78
2021/04/11 02:21:15;;;;;;;46.30;27.80;;;9.00;99.90;;;;;;4900905;29;20445;-78
2021/04/11 02:23:44;;;;;;;42.37;27.53;;;8.90;99.90;;;;;;4901138;29;20439;-77
2021/04/11 02:26:14;;;;;;;39.27;25.30;;;8.90;99.90;;;;;;4896023;29;20564;-77
2021/04/11 02:28:42;;;;;;;39.07;25.10;;;8.70;99.90;;;;;;4931619;29;20443;-77
2021/04/11 02:31:16;;;;;;;39.80;24.93;;;8.70;99.90;;;;;;4925114;29;20448;-77
2021/04/11 02:34:08;;;;;;;33.80;24.33;;;8.60;99.90;;;;;;4936185;29;20478;-77
2021/04/11 02:36:44;;;;;;;31.30;21.40;;;8.50;99.90;;;;;;4919495;29;20486;-77
2021/04/11 02:39:26;;;;;;;25.27;17.67;;;8.40;99.90;;;;;;4926020;29;20435;-77
2021/04/11 02:42:00;;;;;;;18.33;13.70;;;8.30;99.90;;;;;;4920018;29;20516;-77
2021/04/11 02:44:27;;;;;;;19.70;13.90;;;8.20;99.90;;;;;;4932285;29;20533;-77
2021/04/11 02:46:55;;;;;;;18.20;13.13;;;8.10;99.90;;;;;;4900380;29;20442;-77
2021/04/11 02:49:24;;;;;;;17.23;11.73;;;8.00;99.90;;;;;;4919092;29;20785;-77
2021/04/11 02:52:02;;;;;;;16.80;13.03;;;7.90;99.90;;;;;;4935218;29;20449;-77
2021/04/11 02:54:30;;;;;;;15.73;11.95;;;7.90;99.90;;;;;;4912110;29;20462;-77
2021/04/11 02:57:06;;;;;;;20.35;13.32;;;7.80;99.90;;;;;;4914641;29;20278;-77
2021/04/11 02:59:37;;;;;;;22.80;14.80;;;7.70;99.90;;;;;;4914001;29;20202;-77
2021/04/11 03:02:07;;;;;;;24.45;16.48;;;7.70;99.90;;;;;;4927543;29;20435;-77
2021/04/11 03:04:42;;;;;;;15.90;12.10;;;7.60;99.90;;;;;;4907851;29;20196;-77
2021/04/11 03:07:42;;;;;;;13.40;9.80;;;7.60;99.90;;;;;;4911228;29;20664;-76
2021/04/11 03:10:27;;;;;;;10.43;7.30;;;7.50;99.90;;;;;;4920047;29;20471;-79
2021/04/11 03:12:55;;;;;;;8.50;6.70;;;7.30;99.90;;;;;;4912322;29;20204;-77
2021/04/11 03:15:26;;;;;;;8.52;6.60;;;7.20;99.90;;;;;;4935187;29;20814;-77
2021/04/11 03:17:56;;;;;;;11.23;8.23;;;7.20;99.90;;;;;;4929257;29;20191;-76
2021/04/11 03:20:32;;;;;;;13.23;9.90;;;7.20;99.90;;;;;;4928139;29;20197;-79
2021/04/11 03:23:06;;;;;;;16.92;12.10;;;7.10;99.90;;;;;;4934931;29;20193;-77
2021/04/11 03:25:34;;;;;;;16.05;12.40;;;7.00;99.90;;;;;;4924881;29;20236;-79
2021/04/11 03:28:24;;;;;;;16.05;10.88;;;6.90;99.90;;;;;;4899748;29;20203;-79
2021/04/11 03:31:11;;;;;;;13.45;10.25;;;6.80;99.90;;;;;;4935474;29;20201;-79
2021/04/11 03:33:44;;;;;;;10.20;8.20;;;6.70;99.90;;;;;;4903925;29;20210;-79
2021/04/11 03:36:17;;;;;;;12.10;9.15;;;6.70;99.90;;;;;;4909439;29;21088;-79
2021/04/11 03:38:49;;;;;;;10.00;8.27;;;6.60;99.90;;;;;;4905131;29;20188;-79
2021/04/11 03:41:21;;;;;;;10.30;8.13;;;6.40;99.90;;;;;;4921013;29;20299;-78
2021/04/11 03:43:57;;;;;;;11.95;8.93;;;6.40;99.90;;;;;;4917047;29;20182;-79
2021/04/11 03:47:18;;;;;;;13.30;9.80;;;6.40;99.90;;;;;;4934710;29;20204;-79
2021/04/11 03:49:57;;;;;;;13.75;8.25;;;6.40;99.90;;;;;;4903489;29;20245;-79
2021/04/11 03:52:51;;;;;;;10.98;7.75;;;6.30;99.90;;;;;;4938198;29;20246;-79
2021/04/11 03:55:26;;;;;;;9.73;8.07;;;6.30;99.90;;;;;;4938102;29;20269;-80
2021/04/11 03:58:01;;;;;;;9.60;7.57;;;6.20;99.90;;;;;;4917405;29;20291;-79
2021/04/11 04:00:51;;;;;;;10.48;7.93;;;6.20;99.90;;;;;;4929089;29;20263;-79
2021/04/11 04:03:26;;;;;;;11.40;8.68;;;6.10;99.90;;;;;;4930494;29;20551;-79
2021/04/11 04:06:03;;;;;;;10.07;7.03;;;6.10;99.90;;;;;;4932812;29;20192;-79
2021/04/11 04:08:34;;;;;;;12.05;7.40;;;6.10;99.90;;;;;;4932896;29;20224;-79
2021/04/11 04:11:05;;;;;;;11.85;7.43;;;6.00;99.90;;;;;;4931833;29;20204;-79
2021/04/11 04:13:43;;;;;;;9.02;5.80;;;5.90;99.90;;;;;;4902951;29;20223;-79
2021/04/11 04:16:45;;;;;;;9.60;6.93;;;5.90;99.90;;;;;;4933794;29;20557;-80
2021/04/11 04:19:32;;;;;;;10.07;6.93;;;5.90;99.90;;;;;;4907577;29;20207;-80
2021/04/11 04:22:16;;;;;;;9.93;6.60;;;5.90;99.90;;;;;;4896747;29;20193;-80
2021/04/11 04:25:51;;;;;;;10.02;6.80;;;5.90;99.90;;;;;;4917515;29;20239;-80
2021/04/11 04:28:49;;;;;;;14.38;6.90;;;5.90;99.90;;;;;;4909181;29;20208;-79
2021/04/11 04:31:38;;;;;;;11.40;7.82;;;6.00;99.90;;;;;;4924916;29;20233;-78
2021/04/11 04:34:29;;;;;;;13.82;9.25;;;5.90;99.90;;;;;;4916127;29;20263;-78
2021/04/11 04:37:08;;;;;;;18.35;10.13;;;5.90;99.90;;;;;;4926145;29;20192;-78
2021/04/11 04:40:27;;;;;;;13.07;8.32;;;5.90;99.90;;;;;;4917966;29;20307;-77
2021/04/11 04:43:04;;;;;;;15.45;10.10;;;5.90;99.90;;;;;;4925763;29;20271;-78
2021/04/11 04:46:16;;;;;;;17.55;10.50;;;5.90;99.90;;;;;;4918875;29;20184;-78
2021/04/11 04:49:03;;;;;;;11.70;8.63;;;5.90;99.90;;;;;;4925052;29;20209;-77
2021/04/11 04:51:42;;;;;;;8.50;6.68;;;5.80;99.90;;;;;;4923025;29;20599;-77
2021/04/11 04:54:35;;;;;;;9.13;6.55;;;5.70;99.90;;;;;;4937236;29;20741;-78
2021/04/11 04:57:09;;;;;;;9.07;7.15;;;5.60;99.90;;;;;;4912772;29;20216;-77
2021/04/11 04:59:48;;;;;;;9.88;7.70;;;5.60;99.90;;;;;;4903108;29;20281;-77
2021/04/11 05:02:26;;;;;;;9.80;8.00;;;5.40;99.90;;;;;;4929545;29;20541;-77
2021/04/11 05:05:10;;;;;;;13.77;10.35;;;5.40;99.90;;;;;;4905267;29;20558;-77
2021/04/11 05:07:57;;;;;;;23.67;13.38;;;5.40;99.90;;;;;;4912879;29;20586;-77
2021/04/11 05:10:48;;;;;;;26.65;15.68;;;5.40;99.90;;;;;;4914546;29;20255;-77
2021/04/11 05:13:37;;;;;;;22.20;14.85;;;5.40;99.90;;;;;;4915640;29;20180;-77
2021/04/11 05:16:14;;;;;;;16.90;11.68;;;5.40;99.90;;;;;;4920646;29;20208;-77
2021/04/11 05:19:00;;;;;;;15.43;10.75;;;5.40;99.90;;;;;;4914079;29;20234;-77
2021/04/11 05:21:43;;;;;;;15.45;10.90;;;5.40;99.90;;;;;;4936149;29;20243;-77
2021/04/11 05:24:31;;;;;;;12.20;9.40;;;5.30;99.90;;;;;;4936746;29;20199;-77
2021/04/11 05:27:05;;;;;;;14.13;9.40;;;5.30;99.90;;;;;;4941914;29;20206;-78
2021/04/11 05:30:20;;;;;;;17.02;10.85;;;5.30;99.90;;;;;;4937883;29;20192;-77
2021/04/11 05:32:48;;;;;;;12.63;8.93;;;5.30;99.90;;;;;;4945021;29;20195;-77
2021/04/11 05:35:14;;;;;;;14.55;9.77;;;5.30;99.90;;;;;;4936408;29;20220;-77
2021/04/11 05:37:46;;;;;;;15.48;11.38;;;5.20;99.90;;;;;;4889834;29;20821;-78
2021/04/11 05:40:26;;;;;;;24.52;15.90;;;5.10;99.90;;;;;;4921236;29;20183;-77
2021/04/11 05:43:05;;;;;;;27.67;17.23;;;5.20;99.90;;;;;;4920175;29;20184;-77
2021/04/11 05:45:43;;;;;;;30.85;18.00;;;5.20;99.90;;;;;;4928527;29;20542;-77
2021/04/11 05:48:29;;;;;;;27.17;17.35;;;5.20;99.90;;;;;;4920703;29;20191;-78
2021/04/11 05:51:01;;;;;;;30.20;17.15;;;5.20;99.90;;;;;;4943026;29;20298;-78
2021/04/11 05:53:41;;;;;;;24.05;16.42;;;5.20;99.90;;;;;;4906226;29;20197;-77
2021/04/11 05:56:18;;;;;;;20.92;14.20;;;5.20;99.90;;;;;;4946273;29;20534;-77
2021/04/11 05:59:02;;;;;;;23.77;15.05;;;5.20;99.90;;;;;;4942188;29;20191;-77
2021/04/11 06:01:36;;;;;;;20.83;14.35;;;5.20;99.90;;;;;;4937732;29;20527;-77
2021/04/11 06:04:19;;;;;;;16.58;12.73;;;5.30;99.90;;;;;;4917551;29;20203;-78
2021/04/11 06:07:11;;;;;;;20.13;13.13;;;5.30;99.90;;;;;;4911634;29;20188;-78
2021/04/11 06:09:46;;;;;;;20.98;13.80;;;5.30;99.90;;;;;;4911614;29;20203;-77
2021/04/11 06:12:27;;;;;;;22.67;13.25;;;5.30;99.90;;;;;;4920589;29;20200;-77
2021/04/11 06:15:06;;;;;;;22.77;14.07;;;5.30;99.90;;;;;;4936951;29;20208;-77
2021/04/11 06:17:35;;;;;;;19.92;12.40;;;5.30;99.90;;;;;;4925297;29;20649;-77
2021/04/11 06:20:08;;;;;;;19.20;13.45;;;5.20;99.90;;;;;;4938672;29;20189;-77
2021/04/11 06:22:53;;;;;;;18.27;12.57;;;5.20;99.90;;;;;;4938519;29;20265;-77
2021/04/11 06:25:31;;;;;;;21.00;13.02;;;5.30;99.90;;;;;;4919408;29;20322;-77
2021/04/11 06:28:13;;;;;;;28.63;15.90;;;5.20;99.90;;;;;;4913554;29;20705;-77
2021/04/11 06:30:55;;;;;;;21.52;14.65;;;5.20;99.90;;;;;;4917760;29;20248;-76
2021/04/11 06:33:24;;;;;;;20.73;13.10;;;5.20;99.90;;;;;;4927482;29;20588;-77
2021/04/11 06:36:00;;;;;;;16.25;12.02;;;5.20;99.90;;;;;;4915018;29;20208;-77
2021/04/11 06:38:34;;;;;;;20.67;11.32;;;5.20;99.90;;;;;;4915211;29;20192;-77
2021/04/11 06:41:06;;;;;;;18.40;10.88;;;5.20;99.90;;;;;;4909717;29;20224;-77
2021/04/11 06:44:03;;;;;;;19.17;12.95;;;5.20;99.90;;;;;;4923971;29;20655;-80
2021/04/11 06:47:11;;;;;;;15.00;11.20;;;5.30;99.90;;;;;;4909427;29;20192;-77
2021/04/11 06:50:20;;;;;;;15.77;10.20;;;5.30;99.90;;;;;;4906354;29;20201;-77
2021/04/11 06:53:01;;;;;;;14.98;9.43;;;5.30;99.90;;;;;;4920516;29;20196;-77
2021/04/11 06:55:55;;;;;;;11.85;9.15;;;5.40;99.90;;;;;;4925209;29;20237;-78
2021/04/11 06:58:30;;;;;;;11.65;8.38;;;5.40;99.90;;;;;;4886505;29;20534;-77
2021/04/11 07:01:09;;;;;;;12.95;8.93;;;5.40;99.90;;;;;;4916911;29;20262;-77
2021/04/11 07:03:43;;;;;;;10.35;7.85;;;5.40;99.90;;;;;;4901615;29;20201;-78
2021/04/11 07:06:41;;;;;;;10.63;7.95;;;5.40;99.90;;;;;;4914459;29;20219;-78
2021/04/11 07:09:33;;;;;;;13.00;9.15;;;5.40;99.90;;;;;;4925146;29;20195;-78
2021/04/11 07:12:21;;;;;;;13.50;9.90;;;5.30;99.90;;;;;;4908076;29;20333;-78
2021/04/11 07:15:02;;;;;;;13.25;9.73;;;5.30;99.90;;;;;;4915892;29;20662;-78
2021/04/11 07:17:46;;;;;;;16.30;11.05;;;5.30;99.90;;;;;;4932021;29;20208;-78
2021/04/11 07:20:52;;;;;;;14.15;9.93;;;5.30;99.90;;;;;;4928960;29;20224;-78
2021/04/11 07:23:34;;;;;;;11.00;8.40;;;5.30;99.90;;;;;;4916653;29;20207;-78
2021/04/11 07:26:03;;;;;;;13.15;9.70;;;5.30;99.90;;;;;;4929077;29;20239;-78
2021/04/11 07:28:45;;;;;;;14.45;10.77;;;5.30;99.90;;;;;;4919180;29;20608;-78
2021/04/11 07:31:28;;;;;;;15.32;10.70;;;5.30;99.90;;;;;;4934820;29;20192;-78
2021/04/11 07:34:17;;;;;;;15.23;11.38;;;5.20;99.90;;;;;;4936544;29;20657;-78
2021/04/11 07:37:07;;;;;;;14.75;10.23;;;5.30;99.90;;;;;;4926828;29;20275;-79
2021/04/11 07:40:02;;;;;;;14.05;9.18;;;5.20;99.90;;;;;;4931188;29;20190;-78
2021/04/11 07:43:07;;;;;;;12.18;8.13;;;5.20;99.90;;;;;;4932940;29;20212;-78
2021/04/11 07:45:55;;;;;;;9.05;7.35;;;5.20;99.90;;;;;;4928209;29;20192;-78
2021/04/11 07:49:01;;;;;;;13.07;8.23;;;5.30;99.90;;;;;;4924141;29;20196;-78
2021/04/11 07:51:31;;;;;;;9.63;7.85;;;5.20;99.90;;;;;;4926898;29;20705;-78
2021/04/11 07:54:37;;;;;;;13.20;8.85;;;5.20;99.90;;;;;;4916297;29;20259;-78
2021/04/11 07:57:55;;;;;;;11.38;8.93;;;5.20;99.90;;;;;;4933842;29;20196;-78
2021/04/11 08:00:43;;;;;;;10.57;7.88;;;5.20;99.90;;;;;;4925458;29;20196;-78
2021/04/11 08:03:30;;;;;;;10.93;7.93;;;5.10;99.90;;;;;;4927596;29;20678;-78
2021/04/11 08:06:33;;;;;;;11.50;7.90;;;5.20;99.90;;;;;;4928350;29;20693;-78
2021/04/11 08:09:23;;;;;;;11.15;7.82;;;5.30;99.90;;;;;;4930217;29;20215;-79
2021/04/11 08:12:33;;;;;;;8.38;7.15;;;5.30;99.90;;;;;;4918161;29;20218;-78
2021/04/11 08:15:43;;;;;;;7.32;6.22;;;5.40;99.90;;;;;;4933917;29;20223;-78
2021/04/11 08:18:30;;;;;;;10.75;8.18;;;5.40;99.90;;;;;;4926196;29;20220;-79
2021/04/11 08:21:31;;;;;;;6.80;5.80;;;5.50;99.90;;;;;;4926620;29;20339;-78
2021/04/11 08:24:07;;;;;;;7.10;6.40;;;5.50;99.90;;;;;;4933505;29;20196;-78
2021/04/11 08:26:51;;;;;;;7.60;6.65;;;5.50;99.90;;;;;;4926504;29;20248;-78
2021/04/11 08:29:17;;;;;;;6.53;5.72;;;5.50;99.90;;;;;;4888554;29;20197;-78
2021/04/11 08:32:15;;;;;;;7.80;6.85;;;5.40;99.90;;;;;;4907973;29;20215;-78
2021/04/11 08:35:37;;;;;;;6.10;5.45;;;5.40;99.90;;;;;;4903992;29;20213;-78
2021/04/11 08:38:30;;;;;;;6.40;5.20;;;5.50;99.90;;;;;;4896692;29;20213;-78
2021/04/11 08:41:40;;;;;;;6.60;5.40;;;5.50;99.90;;;;;;4900273;29;20193;-78
2021/04/11 08:44:27;;;;;;;7.78;6.50;;;5.60;99.90;;;;;;4902790;29;20208;-78
2021/04/11 08:47:14;;;;;;;5.65;5.05;;;5.60;99.90;;;;;;4871236;29;20193;-78
2021/04/11 08:50:00;;;;;;;4.88;4.38;;;5.60;99.90;;;;;;4902964;29;20193;-78
2021/04/11 08:52:46;;;;;;;5.95;5.15;;;5.50;99.90;;;;;;4918577;29;20190;-78
2021/04/11 08:55:46;;;;;;;5.30;4.28;;;5.50;99.90;;;;;;4913062;29;20537;-78
2021/04/11 08:58:56;;;;;;;6.18;4.97;;;5.50;99.90;;;;;;4926879;29;20188;-79
2021/04/11 09:01:53;;;;;;;6.55;4.63;;;5.60;99.90;;;;;;4860254;29;20265;-77
2021/04/11 09:04:40;;;;;;;5.57;4.65;;;5.50;99.90;;;;;;4861013;29;20202;-78
2021/04/11 09:07:37;;;;;;;5.07;4.25;;;5.50;99.90;;;;;;4907944;29;20201;-78
2021/04/11 09:10:47;;;;;;;6.65;4.75;;;5.50;99.90;;;;;;4903104;29;20260;-78
2021/04/11 09:13:30;;;;;;;6.65;4.97;;;5.60;99.90;;;;;;4901996;29;20263;-78
2021/04/11 09:16:11;;;;;;;5.55;4.95;;;5.50;99.90;;;;;;4917239;29;20200;-79
2021/04/11 09:19:05;;;;;;;6.72;4.45;;;5.40;99.90;;;;;;4923994;29;20210;-78
2021/04/11 09:22:03;;;;;;;4.45;3.85;;;5.40;99.90;;;;;;4901589;29;20208;-78
2021/04/11 09:25:10;;;;;;;3.38;2.97;;;5.50;99.90;;;;;;4897067;29;20209;-78
2021/04/11 09:27:45;;;;;;;3.92;2.72;;;5.50;99.90;;;;;;4920653;29;20900;-78
2021/04/11 09:30:25;;;;;;;5.10;3.45;;;5.30;99.90;;;;;;4937234;29;20274;-79
2021/04/11 09:33:23;;;;;;;3.70;3.10;;;5.40;99.90;;;;;;4930504;29;20662;-78
2021/04/11 09:36:26;;;;;;;3.17;2.50;;;5.50;99.90;;;;;;4939601;28;20237;-78
2021/04/11 09:39:23;;;;;;;3.80;3.13;;;5.50;99.90;;;;;;4904961;29;20266;-78
2021/04/11 09:42:17;;;;;;;6.18;3.25;;;5.50;99.90;;;;;;4920773;29;20207;-78
2021/04/11 09:45:12;;;;;;;4.88;3.05;;;5.50;99.90;;;;;;4930726;29;20628;-79
2021/04/11 09:47:46;;;;;;;5.55;3.83;;;5.50;99.90;;;;;;4920949;29;20187;-78
2021/04/11 09:50:16;;;;;;;11.35;7.30;;;5.60;99.90;;;;;;4920646;29;20188;-78
2021/04/11 09:52:53;;;;;;;7.45;6.18;;;5.70;99.90;;;;;;4936733;29;20204;-78
2021/04/11 09:55:38;;;;;;;8.65;6.05;;;5.60;99.90;;;;;;4920559;29;20216;-79
2021/04/11 09:58:26;;;;;;;6.53;5.22;;;5.60;99.90;;;;;;4940727;29;20204;-78
2021/04/11 10:01:05;;;;;;;6.95;5.15;;;5.60;99.90;;;;;;4929882;29;20276;-79
2021/04/11 10:04:01;;;;;;;5.90;4.35;;;5.70;99.90;;;;;;4937488;29;20692;-79
2021/04/11 10:06:44;;;;;;;5.30;3.92;;;5.70;99.90;;;;;;4934922;29;20188;-79
2021/04/11 10:09:14;;;;;;;9.13;5.03;;;5.70;99.90;;;;;;4920526;29;20504;-79
2021/04/11 10:12:16;;;;;;;5.30;3.95;;;5.70;99.90;;;;;;4920018;29;20211;-79
2021/04/11 10:15:13;;;;;;;5.20;3.97;;;5.70;99.90;;;;;;4937132;29;20208;-78
2021/04/11 10:18:08;;;;;;;4.47;3.70;;;5.70;99.90;;;;;;4931385;29;20215;-78
2021/04/11 10:20:52;;;;;;;4.10;3.70;;;5.70;99.90;;;;;;4919217;29;20224;-79
2021/04/11 10:23:27;;;;;;;4.82;4.32;;;5.60;99.90;;;;;;4919914;29;20192;-78
2021/04/11 10:26:14;;;;;;;4.28;3.80;;;5.60;99.90;;;;;;4936624;29;20247;-79
2021/04/11 10:28:49;;;;;;;4.05;3.13;;;5.60;99.90;;;;;;4920137;29;20282;-78
2021/04/11 10:31:36;;;;;;;4.60;3.97;;;5.70;99.90;;;;;;4941309;29;20192;-78
2021/04/11 10:34:19;;;;;;;4.28;3.60;;;5.70;99.90;;;;;;4934765;29;20591;-78
2021/04/11 10:37:03;;;;;;;4.47;3.15;;;5.70;99.90;;;;;;4920126;29;20698;-78
2021/04/11 10:40:00;;;;;;;3.55;3.05;;;5.70;99.90;;;;;;4912201;29;20527;-79
2021/04/11 10:42:50;;;;;;;4.22;3.60;;;5.60;99.90;;;;;;4933771;29;20275;-78
2021/04/11 10:45:38;;;;;;;3.60;3.22;;;5.70;99.90;;;;;;4919230;29;20224;-79
2021/04/11 10:48:31;;;;;;;3.95;3.45;;;5.80;99.90;;;;;;4934502;29;20296;-78
2021/04/11 10:51:21;;;;;;;5.10;4.50;;;5.80;99.90;;;;;;4925856;29;20189;-78
2021/04/11 10:54:00;;;;;;;6.25;4.30;;;5.80;99.90;;;;;;4935031;29;20206;-78
2021/04/11 10:57:05;;;;;;;4.93;4.40;;;5.80;99.90;;;;;;4917848;29;20267;-78
2021/04/11 10:59:43;;;;;;;5.82;4.43;;;5.80;99.90;;;;;;4902392;29;20187;-79
2021/04/11 11:02:48;;;;;;;4.90;4.10;;;5.80;99.90;;;;;;4917146;29;20581;-78
2021/04/11 11:05:37;;;;;;;5.40;4.60;;;5.80;99.90;;;;;;4935587;29;20660;-78
2021/04/11 11:08:17;;;;;;;4.88;4.10;;;6.00;99.90;;;;;;4931628;29;20275;-79
2021/04/11 11:11:00;;;;;;;5.18;4.25;;;6.00;99.90;;;;;;4934047;29;20216;-78
2021/04/11 11:13:38;;;;;;;4.18;3.08;;;6.00;99.90;;;;;;4928784;29;20200;-78
2021/04/11 11:16:18;;;;;;;5.72;3.75;;;6.00;99.90;;;;;;4920801;29;20181;-78
2021/04/11 11:19:06;;;;;;;5.13;3.58;;;6.00;99.90;;;;;;4935071;29;20585;-78
2021/04/11 11:22:00;;;;;;;3.55;2.92;;;6.10;99.90;;;;;;4934389;29;20219;-78
2021/04/11 11:24:49;;;;;;;5.00;3.70;;;6.10;99.90;;;;;;4935767;29;20507;-78
2021/04/11 11:27:32;;;;;;;4.13;3.47;;;6.20;99.90;;;;;;4916015;29;20245;-78
2021/04/11 11:30:13;;;;;;;4.97;3.60;;;6.20;99.90;;;;;;4900938;29;20186;-78
2021/04/11 11:33:21;;;;;;;8.23;4.00;;;6.20;99.90;;;;;;4916665;29;20193;-78
2021/04/11 11:36:15;;;;;;;4.60;3.47;;;6.30;99.90;;;;;;4920201;29;20208;-79
2021/04/11 11:39:02;;;;;;;6.13;5.20;;;6.30;99.90;;;;;;4915203;29;20300;-78
2021/04/11 11:42:18;;;;;;;8.30;4.90;;;6.20;99.90;;;;;;4926373;29;20703;-78
2021/04/11 11:45:02;;;;;;;9.20;4.40;;;6.30;99.90;;;;;;4914872;29;20265;-78
2021/04/11 11:47:32;;;;;;;7.95;5.13;;;6.40;99.90;;;;;;4880861;29;20205;-79
2021/04/11 11:50:05;;;;;;;6.35;4.43;;;6.40;99.90;;;;;;4916325;29;21116;-80
2021/04/11 11:53:04;;;;;;;7.05;4.28;;;6.40;99.90;;;;;;4917610;29;20198;-79
2021/04/11 11:55:38;;;;;;;5.07;3.45;;;6.40;99.90;;;;;;4915947;29;20205;-79
2021/04/11 11:58:22;;;;;;;6.97;5.10;;;6.40;99.90;;;;;;4921530;29;20213;-78
2021/04/11 12:00:58;;;;;;;6.13;4.05;;;6.40;99.90;;;;;;4916070;29;20546;-80
2021/04/11 12:03:36;;;;;;;5.47;4.32;;;6.40;99.90;;;;;;4915516;29;20196;-78
2021/04/11 12:06:35;;;;;;;5.22;4.10;;;6.40;99.90;;;;;;4916650;29;20188;-80
2021/04/11 12:09:12;;;;;;;6.72;6.03;;;6.30;99.90;;;;;;4913758;29;20200;-80
2021/04/11 12:11:46;;;;;;;6.50;4.75;;;6.30;99.90;;;;;;4916117;29;20196;-80
2021/04/11 12:14:36;;;;;;;5.95;3.80;;;6.30;99.90;;;;;;4915581;29;20225;-80
2021/04/11 12:17:18;;;;;;;8.23;4.30;;;6.30;99.90;;;;;;4915062;29;20681;-80
2021/04/11 12:20:05;;;;;;;5.13;4.15;;;6.30;99.90;;;;;;4899453;29;20212;-80
2021/04/11 12:22:39;;;;;;;6.43;3.75;;;6.30;99.90;;;;;;4926807;29;20555;-80
2021/04/11 12:25:16;;;;;;;8.27;4.05;;;6.40;99.90;;;;;;4917977;29;20221;-80
2021/04/11 12:27:48;;;;;;;5.90;4.32;;;6.50;99.90;;;;;;4935021;29;20258;-78
2021/04/11 12:30:35;;;;;;;4.82;3.80;;;6.70;99.90;;;;;;4935027;29;20196;-79
2021/04/11 12:33:39;;;;;;;6.37;5.00;;;7.00;99.90;;;;;;4918097;29;20188;-78
2021/04/11 12:36:29;;;;;;;8.38;4.95;;;7.10;99.90;;;;;;4918919;29;20470;-78
2021/04/11 12:39:11;;;;;;;6.05;3.92;;;7.30;99.90;;;;;;4933705;29;20201;-79
2021/04/11 12:42:33;;;;;;;7.72;4.25;;;7.30;99.90;;;;;;4934258;29;20269;-79
2021/04/11 12:45:01;;;;;;;5.97;4.78;;;7.30;99.90;;;;;;4857271;29;20205;-78
2021/04/11 12:47:48;;;;;;;6.22;4.93;;;7.30;99.90;;;;;;4931943;29;20201;-78
2021/04/11 12:51:07;;;;;;;6.65;4.45;;;7.30;99.90;;;;;;4933346;29;20620;-78
2021/04/11 12:54:12;;;;;;;5.22;4.07;;;7.30;99.90;;;;;;4897809;29;20247;-78
2021/04/11 12:56:45;;;;;;;8.00;4.23;;;7.20;99.90;;;;;;4913320;29;20206;-80
2021/04/11 12:59:39;;;;;;;4.68;3.50;;;7.10;99.90;;;;;;4930908;29;20535;-78
2021/04/11 13:02:17;;;;;;;7.32;4.40;;;7.00;99.90;;;;;;4934737;29;20193;-78
2021/04/11 13:04:49;;;;;;;4.05;3.25;;;7.00;99.90;;;;;;4918127;29;20657;-78
2021/04/11 13:07:30;;;;;;;3.88;3.20;;;7.00;99.90;;;;;;4933557;29;20189;-78
2021/04/11 13:10:21;;;;;;;4.40;3.65;;;7.00;99.90;;;;;;4934273;29;20196;-78
2021/04/11 13:13:06;;;;;;;5.95;3.85;;;7.00;99.90;;;;;;4938188;29;20196;-78
2021/04/11 13:15:43;;;;;;;7.60;5.00;;;6.90;99.90;;;;;;4920987;29;20216;-78
2021/04/11 13:18:17;;;;;;;9.35;6.47;;;6.90;99.90;;;;;;4943788;29;20201;-79
2021/04/11 13:20:57;;;;;;;7.55;6.20;;;6.90;99.90;;;;;;4937382;29;20212;-79
2021/04/11 13:23:29;;;;;;;8.60;5.70;;;6.90;99.90;;;;;;4921140;29;20259;-79
2021/04/11 13:26:20;;;;;;;7.10;4.75;;;6.80;99.90;;;;;;4905971;29;20232;-79
2021/04/11 13:29:20;;;;;;;6.07;4.03;;;6.80;99.90;;;;;;4936949;29;20344;-79
2021/04/11 13:32:01;;;;;;;5.93;4.22;;;6.80;99.90;;;;;;4920744;29;20188;-79
2021/04/11 13:34:43;;;;;;;5.00;4.25;;;6.70;99.90;;;;;;4938525;29;20210;-79
2021/04/11 13:37:18;;;;;;;6.50;4.72;;;6.60;99.90;;;;;;4920315;29;20281;-79
2021/04/11 13:39:50;;;;;;;9.70;4.63;;;6.60;99.90;;;;;;4937454;29;20180;-79
2021/04/11 13:42:56;;;;;;;6.78;5.22;;;6.70;99.90;;;;;;4936844;29;20200;-80
2021/04/11 13:45:53;;;;;;;8.55;5.03;;;6.80;99.90;;;;;;4860800;29;20200;-79
2021/04/11 13:49:04;;;;;;;10.35;4.82;;;6.90;99.90;;;;;;4921880;29;20264;-79
2021/04/11 13:51:57;;;;;;;4.95;3.55;;;7.00;99.90;;;;;;4900428;29;20224;-79
2021/04/11 13:54:37;;;;;;;13.70;10.20;;;7.00;99.90;;;;;;4934724;29;20210;-79
2021/04/11 13:57:25;;;;;;;7.22;3.78;;;7.10;99.90;;;;;;4919523;29;20191;-79
2021/04/11 14:00:08;;;;;;;3.60;2.78;;;7.00;99.90;;;;;;4939754;29;20287;-79
2021/04/11 14:02:48;;;;;;;3.92;3.50;;;7.10;99.90;;;;;;4937159;29;20203;-79
2021/04/11 14:05:49;;;;;;;3.40;2.87;;;7.20;99.90;;;;;;4920764;29;20224;-79
2021/04/11 14:08:32;;;;;;;5.00;3.42;;;7.10;99.90;;;;;;4904823;29;20472;-79